Time;durP1;ratioP1;P1;durP2;ratioP2;P2;SDS_P1;SDS_P2;PMS_P1;PMS_P2;Temp;Humidity;BMP_temperature;BMP_pressure;BME280_temperature;BME280_humidity;BME280_pressure;Samples;Min_cycle;Max_cycle;Signal;HPM_P1;HPM_P2
2022/09/27 00:02:25;;;;;;;;;;;11.10;99.90;;;;;;5064384;28;20873;-61
2022/09/27 00:04:54;;;;;;;;;;;11.10;99.90;;;;;;5056337;28;20354;-62
2022/09/27 00:07:22;;;;;;;;;;;11.10;99.90;;;;;;5065230;28;20859;-62
2022/09/27 00:09:50;;;;;;;;;;;11.10;99.90;;;;;;5060416;28;20605;-61
2022/09/27 00:12:17;;;;;;;;;;;11.10;99.90;;;;;;5063652;28;19967;-62
2022/09/27 00:14:45;;;;;;;;;;;11.00;99.90;;;;;;5070990;28;19967;-62
2022/09/27 00:17:13;;;;;;;;;;;11.00;99.90;;;;;;5068040;28;20640;-61
2022/09/27 00:19:40;;;;;;;;;;;11.10;99.90;;;;;;5068649;28;20356;-61
2022/09/27 00:22:09;;;;;;;;;;;11.20;99.90;;;;;;5071953;28;20055;-62
2022/09/27 00:24:37;;;;;;;;;;;11.10;99.90;;;;;;5066512;28;20045;-61
2022/09/27 00:27:05;;;;;;;;;;;11.20;99.90;;;;;;5064809;28;19969;-62
2022/09/27 00:29:32;;;;;;;;;;;11.20;99.90;;;;;;5074747;28;19966;-62
2022/09/27 00:32:00;;;;;;;;;;;11.20;99.90;;;;;;5075053;28;19966;-62
2022/09/27 00:34:28;;;;;;;;;;;11.20;99.90;;;;;;5074178;28;19967;-61
2022/09/27 00:36:55;;;;;;;;;;;11.30;99.90;;;;;;5074200;28;19973;-61
2022/09/27 00:39:25;;;;;;;;;;;11.30;99.90;;;;;;5074352;28;19977;-62
2022/09/27 00:41:52;;;;;;;;;;;11.30;99.90;;;;;;5074253;28;20611;-63
2022/09/27 00:44:39;;;;;;;;;;;11.30;99.90;;;;;;5074318;28;19973;-62
2022/09/27 00:47:09;;;;;;;;;;;11.30;99.90;;;;;;5074285;28;20062;-61
2022/09/27 00:49:38;;;;;;;;;;;11.20;99.90;;;;;;5074032;28;19973;-61
2022/09/27 00:52:08;;;;;;;;;;;11.30;99.90;;;;;;5074141;28;19974;-61
2022/09/27 00:54:40;;;;;;;;;;;11.30;99.90;;;;;;5073862;28;20064;-62
2022/09/27 00:57:08;;;;;;;;;;;11.30;99.90;;;;;;5070536;28;20443;-62
2022/09/27 00:59:37;;;;;;;;;;;11.40;99.90;;;;;;5073951;28;19966;-61
2022/09/27 01:02:06;;;;;;;;;;;11.30;99.90;;;;;;5074084;28;19978;-62
2022/09/27 01:04:35;;;;;;;;;;;11.40;99.90;;;;;;5073853;28;19970;-62
2022/09/27 01:07:03;;;;;;;;;;;11.40;99.90;;;;;;5073565;28;19975;-61
2022/09/27 01:09:30;;;;;;;;;;;11.50;99.90;;;;;;5073618;28;19967;-62
2022/09/27 01:12:02;;;;;;;;;;;11.50;99.90;;;;;;5073475;28;19967;-62
2022/09/27 01:14:39;;;;;;;;;;;11.50;99.90;;;;;;5073916;28;19966;-62
2022/09/27 01:17:12;;;;;;;;;;;11.60;99.90;;;;;;5074055;28;20164;-61
2022/09/27 01:19:58;;;;;;;;;;;11.60;99.90;;;;;;5074277;28;20356;-61
2022/09/27 01:22:28;;;;;;;;;;;11.50;99.90;;;;;;5073845;28;19966;-61
2022/09/27 01:25:02;;;;;;;;;;;11.50;99.90;;;;;;5073993;28;20060;-61
2022/09/27 01:27:49;;;;;;;;;;;11.50;99.90;;;;;;5070911;28;19963;-61
2022/09/27 01:30:28;;;;;;;;;;;11.40;99.90;;;;;;5071130;28;19966;-61
2022/09/27 01:33:02;;;;;;;;;;;11.40;99.90;;;;;;5074110;28;20346;-61
2022/09/27 01:35:35;;;;;;;;;;;11.50;99.90;;;;;;5088867;28;20033;-66
2022/09/27 01:38:09;;;;;;;;;;;11.40;99.90;;;;;;5069840;28;19971;-62
2022/09/27 01:40:41;;;;;;;;;;;11.40;99.90;;;;;;5071356;28;19985;-63
2022/09/27 01:43:12;;;;;;;;;;;11.50;99.90;;;;;;5064559;28;19975;-63
2022/09/27 01:45:43;;;;;;;;;;;11.40;99.90;;;;;;5063103;28;19969;-64
2022/09/27 01:48:13;;;;;;;;;;;11.40;99.90;;;;;;5063057;28;19967;-64
2022/09/27 01:50:43;;;;;;;;;;;11.40;99.90;;;;;;5071777;28;19971;-63
2022/09/27 01:53:13;;;;;;;;;;;11.40;99.90;;;;;;5060425;28;19973;-63
2022/09/27 01:55:41;;;;;;;;;;;11.40;99.90;;;;;;5065151;28;19974;-64
2022/09/27 01:58:12;;;;;;;;;;;11.30;99.90;;;;;;5063814;28;19967;-63
2022/09/27 02:00:42;;;;;;;;;;;11.40;99.90;;;;;;5057409;28;19963;-63
2022/09/27 02:03:11;;;;;;;;;;;11.30;99.90;;;;;;5068492;28;20045;-63
2022/09/27 02:05:41;;;;;;;;;;;11.30;99.90;;;;;;5064804;28;19996;-64
2022/09/27 02:08:15;;;;;;;;;;;11.20;99.90;;;;;;5060662;28;20313;-63
2022/09/27 02:10:45;;;;;;;;;;;11.20;99.90;;;;;;5066358;28;20442;-63
2022/09/27 02:13:17;;;;;;;;;;;11.20;99.90;;;;;;5070363;28;19969;-63
2022/09/27 02:15:49;;;;;;;;;;;11.10;99.90;;;;;;5063619;28;19971;-63
2022/09/27 02:18:18;;;;;;;;;;;11.10;99.90;;;;;;5061808;28;20393;-64
2022/09/27 02:20:49;;;;;;;;;;;11.10;99.90;;;;;;5065939;28;19967;-64
2022/09/27 02:23:21;;;;;;;;;;;11.00;99.90;;;;;;5059901;28;19967;-64
2022/09/27 02:25:51;;;;;;;;;;;11.00;99.90;;;;;;5071903;28;20001;-63
2022/09/27 02:28:22;;;;;;;;;;;11.00;99.90;;;;;;5063730;28;20061;-64
2022/09/27 02:30:51;;;;;;;;;;;11.00;99.90;;;;;;5068893;28;20566;-63
2022/09/27 02:33:21;;;;;;;;;;;11.00;99.90;;;;;;5063448;28;19973;-64
2022/09/27 02:35:49;;;;;;;;;;;10.90;99.90;;;;;;5069185;28;19963;-64
2022/09/27 02:38:18;;;;;;;;;;;11.00;99.90;;;;;;5069805;28;20345;-64
2022/09/27 02:40:46;;;;;;;;;;;11.00;99.90;;;;;;5072071;28;19973;-63
2022/09/27 02:43:16;;;;;;;;;;;10.90;99.90;;;;;;5054687;28;19978;-63
2022/09/27 02:45:51;;;;;;;;;;;10.90;99.90;;;;;;5054849;28;19981;-64
2022/09/27 02:48:25;;;;;;;;;;;10.90;99.90;;;;;;5068340;28;19969;-63
2022/09/27 02:51:17;;;;;;;;;;;10.90;99.90;;;;;;5071557;28;19966;-64
2022/09/27 02:53:52;;;;;;;;;;;10.90;99.90;;;;;;5060091;28;20381;-63
2022/09/27 02:56:24;;;;;;;;;;;10.90;99.90;;;;;;5072855;28;19966;-63
2022/09/27 02:58:58;;;;;;;;;;;10.90;99.90;;;;;;5072838;28;19981;-63
2022/09/27 03:01:29;;;;;;;;;;;10.90;99.90;;;;;;5071518;28;20065;-64
2022/09/27 03:04:03;;;;;;;;;;;10.90;99.90;;;;;;5072902;28;20020;-63
2022/09/27 03:06:32;;;;;;;;;;;10.80;99.90;;;;;;5072240;28;19977;-63
2022/09/27 03:08:59;;;;;;;;;;;10.80;99.90;;;;;;5072326;28;19970;-63
2022/09/27 03:11:27;;;;;;;;;;;10.70;99.90;;;;;;5071953;28;20659;-63
2022/09/27 03:13:55;;;;;;;;;;;10.70;99.90;;;;;;5070210;28;19977;-63
2022/09/27 03:16:35;;;;;;;;;;;10.80;99.90;;;;;;5071890;28;19970;-63
2022/09/27 03:19:04;;;;;;;;;;;10.70;99.90;;;;;;5066845;28;19962;-63
2022/09/27 03:21:32;;;;;;;;;;;10.60;99.90;;;;;;5062239;28;19963;-63
2022/09/27 03:24:00;;;;;;;;;;;10.60;99.90;;;;;;5058993;28;19966;-63
2022/09/27 03:26:27;;;;;;;;;;;10.60;99.90;;;;;;5069801;28;19969;-63
2022/09/27 03:28:55;;;;;;;;;;;10.60;99.90;;;;;;5071367;28;19970;-63
2022/09/27 03:31:23;;;;;;;;;;;10.60;99.90;;;;;;5073710;28;19966;-63
2022/09/27 03:33:50;;;;;;;;;;;10.50;99.90;;;;;;5093192;22;20069;-65
2022/09/27 03:36:19;;;;;;;;;;;10.60;99.90;;;;;;5068697;28;20322;-64
2022/09/27 03:38:47;;;;;;;;;;;10.60;99.90;;;;;;5066753;28;19971;-65
2022/09/27 03:41:15;;;;;;;;;;;10.50;99.90;;;;;;5070636;28;19973;-65
2022/09/27 03:43:43;;;;;;;;;;;10.40;99.90;;;;;;5070260;28;19973;-65
2022/09/27 03:46:10;;;;;;;;;;;10.50;99.90;;;;;;5054901;28;19974;-65
2022/09/27 03:48:38;;;;;;;;;;;10.60;99.90;;;;;;5051769;28;19969;-65
2022/09/27 03:51:07;;;;;;;;;;;10.60;99.90;;;;;;5053449;28;19967;-65
2022/09/27 03:53:36;;;;;;;;;;;10.50;99.90;;;;;;5061912;28;19973;-66
2022/09/27 03:56:04;;;;;;;;;;;10.60;99.90;;;;;;5062597;28;19972;-66
2022/09/27 03:58:31;;;;;;;;;;;10.70;99.90;;;;;;5058811;28;19971;-66
2022/09/27 04:00:59;;;;;;;;;;;10.70;99.90;;;;;;5063704;28;19967;-66
2022/09/27 04:03:27;;;;;;;;;;;10.60;99.90;;;;;;5059210;28;20049;-66
2022/09/27 04:05:54;;;;;;;;;;;10.60;99.90;;;;;;5062104;28;19966;-67
2022/09/27 04:08:22;;;;;;;;;;;10.70;99.90;;;;;;5059643;28;19971;-65
2022/09/27 04:10:51;;;;;;;;;;;10.60;99.90;;;;;;5061771;28;19967;-66
2022/09/27 04:13:19;;;;;;;;;;;10.70;99.90;;;;;;5068602;28;19973;-65
2022/09/27 04:15:47;;;;;;;;;;;10.60;99.90;;;;;;5057488;28;19973;-65
2022/09/27 04:18:19;;;;;;;;;;;10.60;99.90;;;;;;5062755;28;19970;-65
2022/09/27 04:20:46;;;;;;;;;;;10.60;99.90;;;;;;5042018;28;19967;-66
2022/09/27 04:23:14;;;;;;;;;;;10.50;99.90;;;;;;5053455;28;19962;-66
2022/09/27 04:25:42;;;;;;;;;;;10.50;99.90;;;;;;5049882;28;20077;-67
2022/09/27 04:28:11;;;;;;;;;;;10.30;99.90;;;;;;5052579;28;20015;-67
2022/09/27 04:30:40;;;;;;;;;;;10.30;99.90;;;;;;5052615;28;19977;-66
2022/09/27 04:33:08;;;;;;;;;;;10.20;99.90;;;;;;5054906;28;19979;-66
2022/09/27 04:38:22;;;;;;;;;;;10.00;99.90;;;;;;5054675;28;19966;-66
2022/09/27 04:40:50;;;;;;;;;;;9.90;99.90;;;;;;5052683;28;20341;-66
2022/09/27 04:43:19;;;;;;;;;;;9.90;99.90;;;;;;5057141;28;20400;-66
2022/09/27 04:45:47;;;;;;;;;;;9.90;99.90;;;;;;5050761;28;19973;-66
2022/09/27 04:48:15;;;;;;;;;;;9.80;99.90;;;;;;5057202;28;20016;-66
2022/09/27 04:50:42;;;;;;;;;;;9.80;99.90;;;;;;5050900;28;19977;-66
2022/09/27 04:53:13;;;;;;;;;;;9.80;99.90;;;;;;5057009;28;19981;-65
2022/09/27 04:55:44;;;;;;;;;;;9.80;99.90;;;;;;5051007;28;19974;-66
2022/09/27 04:58:11;;;;;;;;;;;9.80;99.90;;;;;;5056445;28;19975;-66
2022/09/27 05:00:41;;;;;;;;;;;9.70;99.90;;;;;;5053311;28;19977;-66
2022/09/27 05:03:09;;;;;;;;;;;9.70;99.90;;;;;;5053123;28;19982;-66
2022/09/27 05:05:37;;;;;;;;;;;9.80;99.90;;;;;;5050986;28;19971;-66
2022/09/27 05:08:04;;;;;;;;;;;9.70;99.90;;;;;;5056522;28;20776;-66
2022/09/27 05:10:32;;;;;;;;;;;9.70;99.90;;;;;;5051679;28;19978;-66
2022/09/27 05:13:00;;;;;;;;;;;9.80;99.90;;;;;;5053242;28;19975;-66
2022/09/27 05:15:27;;;;;;;;;;;9.80;99.90;;;;;;5051277;28;19993;-66
2022/09/27 05:17:57;;;;;;;;;;;9.70;99.90;;;;;;5054498;28;19996;-66
2022/09/27 05:20:25;;;;;;;;;;;9.70;99.90;;;;;;5054595;28;19982;-66
2022/09/27 05:22:52;;;;;;;;;;;9.70;99.90;;;;;;5052261;28;19974;-66
2022/09/27 05:25:20;;;;;;;;;;;9.70;99.90;;;;;;5051867;28;19962;-66
2022/09/27 05:27:49;;;;;;;;;;;9.60;99.90;;;;;;5052994;28;19966;-66
2022/09/27 05:30:17;;;;;;;;;;;9.70;99.90;;;;;;5051221;28;19979;-66
2022/09/27 05:32:46;;;;;;;;;;;9.70;99.90;;;;;;5052438;28;19973;-66
2022/09/27 05:35:17;;;;;;;;;;;9.70;99.90;;;;;;5049946;28;19963;-66
2022/09/27 05:37:50;;;;;;;;;;;9.70;99.90;;;;;;5052743;28;20008;-66
2022/09/27 05:40:18;;;;;;;;;;;9.70;99.90;;;;;;5052155;28;20435;-66
2022/09/27 05:43:05;;;;;;;;;;;9.70;99.90;;;;;;5056212;28;20455;-66
2022/09/27 05:45:33;;;;;;;;;;;9.70;99.90;;;;;;5044798;28;20384;-66
2022/09/27 05:48:02;;;;;;;;;;;9.70;99.90;;;;;;5050701;28;19985;-66
2022/09/27 05:50:31;;;;;;;;;;;9.80;99.90;;;;;;5055476;28;20440;-66
2022/09/27 05:52:59;;;;;;;;;;;9.80;99.90;;;;;;5056845;28;20009;-66
2022/09/27 05:55:28;;;;;;;;;;;9.80;99.90;;;;;;5049955;28;20217;-66
2022/09/27 05:57:57;;;;;;;;;;;9.80;99.90;;;;;;5056578;28;19976;-66
2022/09/27 06:00:25;;;;;;;;;;;9.80;99.90;;;;;;5053160;28;19971;-65
2022/09/27 06:02:54;;;;;;;;;;;9.80;99.90;;;;;;5055964;28;19970;-66
2022/09/27 06:05:23;;;;;;;;;;;9.90;99.90;;;;;;5054827;28;19970;-66
2022/09/27 06:07:52;;;;;;;;;;;9.90;99.90;;;;;;5056365;28;19975;-66
2022/09/27 06:10:20;;;;;;;;;;;9.90;99.90;;;;;;5053982;28;19978;-67
2022/09/27 06:12:49;;;;;;;;;;;10.00;99.90;;;;;;5053077;28;19977;-65
2022/09/27 06:15:16;;;;;;;;;;;10.00;99.90;;;;;;5049251;28;20005;-66
2022/09/27 06:17:44;;;;;;;;;;;10.00;99.90;;;;;;5051205;28;19967;-66
2022/09/27 06:20:12;;;;;;;;;;;10.00;99.90;;;;;;5053207;28;20021;-67
2022/09/27 06:22:40;;;;;;;;;;;10.10;99.90;;;;;;5054839;28;19974;-66
2022/09/27 06:25:09;;;;;;;;;;;10.10;99.90;;;;;;5050352;28;19971;-66
2022/09/27 06:27:37;;;;;;;;;;;10.10;99.90;;;;;;5048579;28;20440;-66
2022/09/27 06:30:05;;;;;;;;;;;10.20;99.90;;;;;;5048269;28;20448;-67
2022/09/27 06:32:32;;;;;;;;;;;10.20;99.90;;;;;;5049462;28;20368;-66
2022/09/27 06:35:04;;;;;;;;;;;10.10;99.90;;;;;;5059130;28;19998;-66
2022/09/27 06:37:31;;;;;;;;;;;10.20;99.90;;;;;;5051726;28;19971;-66
2022/09/27 06:39:59;;;;;;;;;;;10.20;99.90;;;;;;5051881;28;19967;-66
2022/09/27 06:42:29;;;;;;;;;;;10.20;99.90;;;;;;5052096;28;19975;-66
2022/09/27 06:44:57;;;;;;;;;;;10.20;99.90;;;;;;5050480;28;20452;-66
2022/09/27 06:47:25;;;;;;;;;;;10.20;99.90;;;;;;5052124;28;19973;-67
2022/09/27 06:49:53;;;;;;;;;;;10.20;99.90;;;;;;5051848;28;19977;-66
2022/09/27 06:52:20;;;;;;;;;;;10.20;99.90;;;;;;5051956;28;19967;-65
2022/09/27 06:54:48;;;;;;;;;;;10.30;99.90;;;;;;5051258;28;20069;-67
2022/09/27 07:00:22;;;;;;;;;;;10.30;99.90;;;;;;5051280;28;19967;-67
2022/09/27 07:00:23;;;;;;;;;;;10.30;99.90;;;;;;5051604;28;19973;-66
2022/09/27 07:02:51;;;;;;;;;;;10.30;99.90;;;;;;5051922;28;19970;-66
2022/09/27 07:05:19;;;;;;;;;;;10.30;99.90;;;;;;5051706;28;19989;-66
2022/09/27 07:07:47;;;;;;;;;;;10.30;99.90;;;;;;5051180;28;20516;-65
2022/09/27 07:10:17;;;;;;;;;;;10.30;99.90;;;;;;5051544;28;19966;-66
2022/09/27 07:12:47;;;;;;;;;;;10.40;99.90;;;;;;5051733;28;20028;-66
2022/09/27 07:15:16;;;;;;;;;;;10.40;99.90;;;;;;5051454;28;19967;-66
2022/09/27 07:17:44;;;;;;;;;;;10.40;99.90;;;;;;5051131;28;20563;-66
2022/09/27 07:20:12;;;;;;;;;;;10.40;99.90;;;;;;5051665;28;20435;-66
2022/09/27 07:22:41;;;;;;;;;;;10.50;99.90;;;;;;5051495;28;19970;-66
2022/09/27 07:25:09;;;;;;;;;;;10.50;99.90;;;;;;5051995;28;19978;-66
2022/09/27 07:27:36;;;;;;;;;;;10.50;99.90;;;;;;5051394;28;19973;-68
2022/09/27 07:30:06;;;;;;;;;;;10.50;99.90;;;;;;5051256;28;19975;-66
2022/09/27 07:32:35;;;;;;;;;;;10.60;99.90;;;;;;5051844;28;19967;-66
2022/09/27 07:35:03;;;;;;;;;;;10.50;99.90;;;;;;5051198;28;19974;-65
2022/09/27 07:37:31;;;;;;;;;;;10.60;99.90;;;;;;5051626;28;20066;-65
2022/09/27 07:39:59;;;;;;;;;;;10.70;99.90;;;;;;5051211;28;20078;-66
2022/09/27 07:42:28;;;;;;;;;;;10.70;99.90;;;;;;5051493;28;19971;-66
2022/09/27 07:44:55;;;;;;;;;;;10.80;99.90;;;;;;5054933;28;19973;-65
2022/09/27 07:47:23;;;;;;;;;;;10.80;99.90;;;;;;5055354;28;20358;-66
2022/09/27 07:49:52;;;;;;;;;;;10.90;99.90;;;;;;5054730;28;19971;-66
2022/09/27 07:52:20;;;;;;;;;;;10.90;99.90;;;;;;5055130;28;19967;-66
2022/09/27 07:54:48;;;;;;;;;;;11.00;99.90;;;;;;5055007;28;19967;-66
2022/09/27 07:57:16;;;;;;;;;;;11.10;99.90;;;;;;5055089;28;19967;-66
2022/09/27 07:59:44;;;;;;;;;;;11.20;99.90;;;;;;5054584;28;20424;-67
2022/09/27 08:02:13;;;;;;;;;;;11.40;99.90;;;;;;5055099;28;19993;-66
2022/09/27 08:04:42;;;;;;;;;;;11.50;99.90;;;;;;5054872;28;19977;-66
2022/09/27 08:07:11;;;;;;;;;;;11.60;99.90;;;;;;5054932;28;19967;-66
2022/09/27 08:09:41;;;;;;;;;;;11.60;99.90;;;;;;5054507;28;19993;-66
2022/09/27 08:12:09;;;;;;;;;;;11.60;99.90;;;;;;5054603;28;19967;-66
2022/09/27 08:14:37;;;;;;;;;;;11.60;99.90;;;;;;5054704;28;19975;-66
2022/09/27 08:17:14;;;;;;;;;;;11.70;99.90;;;;;;5054940;28;19971;-66
2022/09/27 08:19:43;;;;;;;;;;;11.80;99.90;;;;;;5054742;28;19977;-66
2022/09/27 08:22:13;;;;;;;;;;;11.90;99.90;;;;;;5054706;28;20375;-66
2022/09/27 08:24:41;;;;;;;;;;;11.90;99.90;;;;;;5054763;28;19974;-66
2022/09/27 08:27:09;;;;;;;;;;;11.90;99.90;;;;;;5054711;28;19977;-66
2022/09/27 08:29:40;;;;;;;;;;;11.90;99.90;;;;;;5054197;28;19970;-66
2022/09/27 08:32:08;;;;;;;;;;;12.00;99.90;;;;;;5054439;28;20061;-66
2022/09/27 08:34:36;;;;;;;;;;;11.90;99.90;;;;;;5054277;28;19971;-66
2022/09/27 08:37:04;;;;;;;;;;;11.90;99.90;;;;;;5054666;28;19967;-66
2022/09/27 08:39:33;;;;;;;;;;;11.90;99.90;;;;;;5054256;28;19981;-66
2022/09/27 08:42:05;;;;;;;;;;;12.00;99.90;;;;;;5054367;28;19973;-66
2022/09/27 08:44:36;;;;;;;;;;;12.00;99.90;;;;;;5053631;28;19977;-66
2022/09/27 08:47:09;;;;;;;;;;;12.10;99.90;;;;;;5053709;28;19967;-66
2022/09/27 08:49:38;;;;;;;;;;;12.30;99.90;;;;;;5053693;28;20013;-66
2022/09/27 08:52:07;;;;;;;;;;;12.40;99.90;;;;;;5054161;28;19973;-65
2022/09/27 08:54:37;;;;;;;;;;;12.50;99.90;;;;;;5053493;28;19966;-66
2022/09/27 08:57:09;;;;;;;;;;;13.00;99.90;;;;;;5054094;28;19973;-66
2022/09/27 08:59:39;;;;;;;;;;;13.20;99.90;;;;;;5053510;28;19973;-66
2022/09/27 09:02:13;;;;;;;;;;;13.50;99.90;;;;;;5052792;28;19971;-66
2022/09/27 09:04:42;;;;;;;;;;;13.70;99.90;;;;;;5053599;28;19999;-66
2022/09/27 09:07:20;;;;;;;;;;;14.00;99.90;;;;;;5053286;28;19971;-65
2022/09/27 09:09:54;;;;;;;;;;;14.30;99.90;;;;;;5053442;28;19967;-65
2022/09/27 09:15:16;;;;;;;;;;;14.40;99.90;;;;;;5053230;28;19975;-66
2022/09/27 09:17:50;;;;;;;;;;;14.50;99.90;;;;;;5053258;28;19973;-66
2022/09/27 09:20:21;;;;;;;;;;;14.50;99.90;;;;;;5053525;28;20351;-65
2022/09/27 09:23:06;;;;;;;;;;;14.50;99.90;;;;;;5053800;28;19971;-66
2022/09/27 09:25:42;;;;;;;;;;;14.40;99.90;;;;;;5053019;28;20463;-66
2022/09/27 09:28:18;;;;;;;;;;;14.50;99.90;;;;;;5053372;28;19976;-66
2022/09/27 09:30:49;;;;;;;;;;;14.30;99.90;;;;;;5053139;28;20396;-65
2022/09/27 09:33:21;;;;;;;;;;;14.20;99.90;;;;;;5053333;28;19966;-66
2022/09/27 09:35:53;;;;;;;;;;;14.20;99.90;;;;;;5053944;28;20511;-65
2022/09/27 09:38:23;;;;;;;;;;;14.20;99.90;;;;;;5053643;28;19967;-66
2022/09/27 09:40:56;;;;;;;;;;;14.10;99.90;;;;;;5052489;28;19973;-66
2022/09/27 09:43:27;;;;;;;;;;;14.10;99.90;;;;;;5053231;28;20021;-66
2022/09/27 09:45:57;;;;;;;;;;;14.00;99.90;;;;;;5052295;28;19973;-66
2022/09/27 09:48:29;;;;;;;;;;;14.00;99.90;;;;;;5052828;28;19982;-65
2022/09/27 09:51:00;;;;;;;;;;;13.90;99.90;;;;;;5052217;28;20338;-65
2022/09/27 09:53:33;;;;;;;;;;;13.80;99.90;;;;;;5053103;28;19966;-65
2022/09/27 09:56:04;;;;;;;;;;;13.90;99.90;;;;;;5052531;28;19974;-65
2022/09/27 09:58:36;;;;;;;;;;;13.80;99.90;;;;;;5052753;28;20454;-65
2022/09/27 10:01:12;;;;;;;;;;;13.80;99.90;;;;;;5052336;28;19974;-65
2022/09/27 10:03:40;;;;;;;;;;;13.70;99.90;;;;;;5052678;28;19971;-65
2022/09/27 10:06:09;;;;;;;;;;;13.60;99.90;;;;;;5051724;28;19971;-65
2022/09/27 10:08:37;;;;;;;;;;;13.60;99.90;;;;;;5052477;28;19967;-66
2022/09/27 10:11:06;;;;;;;;;;;13.60;99.90;;;;;;5052323;28;19967;-65
2022/09/27 10:13:34;;;;;;;;;;;13.70;99.90;;;;;;5051934;28;19977;-65
2022/09/27 10:16:04;;;;;;;;;;;13.80;99.90;;;;;;5052094;28;19967;-65
2022/09/27 10:18:32;;;;;;;;;;;14.00;99.90;;;;;;5052397;28;19971;-66
2022/09/27 10:21:01;;;;;;;;;;;14.20;99.90;;;;;;5052267;28;19975;-66
2022/09/27 10:23:29;;;;;;;;;;;14.20;99.90;;;;;;5052283;28;20295;-65
2022/09/27 10:25:58;;;;;;;;;;;14.30;99.90;;;;;;5051623;28;20432;-65
2022/09/27 10:28:31;;;;;;;;;;;14.30;99.90;;;;;;5052457;28;19966;-65
2022/09/27 10:31:00;;;;;;;;;;;14.00;99.90;;;;;;5051946;28;19973;-65
2022/09/27 10:33:30;;;;;;;;;;;13.80;99.90;;;;;;5051910;28;19967;-66
2022/09/27 10:35:58;;;;;;;;;;;13.60;99.90;;;;;;5051184;28;20057;-66
2022/09/27 10:38:27;;;;;;;;;;;13.30;99.90;;;;;;5052016;28;19971;-64
2022/09/27 10:40:55;;;;;;;;;;;13.10;99.90;;;;;;5051714;28;19967;-65
2022/09/27 10:43:32;;;;;;;;;;;12.90;99.90;;;;;;5052134;28;19971;-65
2022/09/27 10:46:03;;;;;;;;;;;12.90;99.90;;;;;;5051195;28;19977;-65
2022/09/27 10:48:31;;;;;;;;;;;12.90;99.90;;;;;;5052060;28;19967;-65
2022/09/27 10:51:00;;;;;;;;;;;12.90;99.90;;;;;;5051385;28;19977;-66
2022/09/27 10:53:29;;;;;;;;;;;12.80;99.90;;;;;;5051835;28;19967;-64
2022/09/27 10:55:56;;;;;;;;;;;12.90;99.90;;;;;;5052008;28;20347;-65
2022/09/27 10:58:26;;;;;;;;;;;13.00;99.90;;;;;;5051904;28;20067;-64
2022/09/27 11:00:56;;;;;;;;;;;13.10;99.90;;;;;;5051541;28;20169;-64
2022/09/27 11:03:27;;;;;;;;;;;13.20;99.90;;;;;;5051647;28;20032;-66
2022/09/27 11:05:58;;;;;;;;;;;13.80;99.90;;;;;;5051502;28;19993;-65
2022/09/27 11:08:30;;;;;;;;;;;14.60;99.90;;;;;;5051806;28;20006;-65
2022/09/27 11:11:07;;;;;;;;;;;15.10;99.90;;;;;;5051296;28;19966;-64
2022/09/27 11:13:35;;;;;;;;;;;15.30;99.90;;;;;;5051675;28;19977;-64
2022/09/27 11:16:17;;;;;;;;;;;15.40;99.90;;;;;;5051610;28;20443;-65
2022/09/27 11:18:50;;;;;;;;;;;15.40;99.90;;;;;;5055454;28;19976;-65
2022/09/27 11:21:23;;;;;;;;;;;15.50;99.90;;;;;;5055618;28;19967;-65
2022/09/27 11:24:00;;;;;;;;;;;15.50;99.90;;;;;;5055625;28;19967;-65
2022/09/27 11:26:36;;;;;;;;;;;15.50;99.90;;;;;;5055132;28;19967;-65
2022/09/27 11:29:11;;;;;;;;;;;15.60;99.90;;;;;;5055501;28;19982;-65
2022/09/27 11:31:43;;;;;;;;;;;15.60;99.90;;;;;;5054944;28;19973;-65
2022/09/27 11:34:20;;;;;;;;;;;15.60;99.90;;;;;;5055192;28;19966;-65
2022/09/27 11:36:55;;;;;;;;;;;15.50;99.90;;;;;;5055028;28;19967;-66
2022/09/27 11:39:23;;;;;;;;;;;15.30;99.90;;;;;;5055652;28;19967;-64
2022/09/27 11:42:01;;;;;;;;;;;15.20;99.90;;;;;;5054931;28;19979;-64
2022/09/27 11:44:35;;;;;;;;;;;15.30;99.90;;;;;;5054657;28;20437;-65
2022/09/27 11:47:10;;;;;;;;;;;15.20;99.90;;;;;;5055086;28;19967;-65
2022/09/27 11:49:55;;;;;;;;;;;15.20;99.90;;;;;;5055219;28;19970;-65
2022/09/27 11:52:31;;;;;;;;;;;15.20;99.90;;;;;;5054616;28;19966;-65
2022/09/27 11:55:04;;;;;;;;;;;15.30;99.90;;;;;;5054362;28;19981;-65
2022/09/27 11:57:34;;;;;;;;;;;15.40;99.90;;;;;;5055288;28;20420;-65
2022/09/27 12:00:05;;;;;;;;;;;15.40;99.90;;;;;;5054942;28;19967;-65
2022/09/27 12:02:52;;;;;;;;;;;15.40;99.90;;;;;;5054955;28;20033;-64
2022/09/27 12:05:25;;;;;;;;;;;15.30;99.90;;;;;;5054149;28;20453;-65
2022/09/27 12:07:59;;;;;;;;;;;15.20;99.90;;;;;;5055070;28;20423;-65
2022/09/27 12:10:27;;;;;;;;;;;15.00;99.90;;;;;;5054745;28;19966;-65
2022/09/27 12:12:56;;;;;;;;;;;15.10;99.90;;;;;;5054870;28;20168;-65
2022/09/27 12:15:25;;;;;;;;;;;15.10;99.90;;;;;;5053595;28;19978;-65
2022/09/27 12:17:54;;;;;;;;;;;15.00;99.90;;;;;;5055599;28;20402;-65
2022/09/27 12:20:25;;;;;;;;;;;15.20;99.90;;;;;;5054409;28;20349;-65
2022/09/27 12:22:56;;;;;;;;;;;15.10;99.90;;;;;;5054833;28;19973;-65
2022/09/27 12:25:30;;;;;;;;;;;15.20;99.90;;;;;;5053425;28;20017;-65
2022/09/27 12:28:00;;;;;;;;;;;15.20;99.90;;;;;;5054338;28;20439;-65
2022/09/27 12:30:30;;;;;;;;;;;15.20;99.90;;;;;;5054153;28;20024;-64
2022/09/27 12:33:00;;;;;;;;;;;15.10;99.90;;;;;;5054576;28;20359;-64
2022/09/27 12:35:32;;;;;;;;;;;14.90;99.90;;;;;;5053333;28;19966;-65
2022/09/27 12:38:02;;;;;;;;;;;14.80;99.90;;;;;;5054169;28;20390;-65
2022/09/27 12:40:32;;;;;;;;;;;15.10;99.90;;;;;;5053776;28;19967;-65
2022/09/27 12:43:03;;;;;;;;;;;15.20;99.90;;;;;;5054320;28;20451;-65
2022/09/27 12:45:38;;;;;;;;;;;15.20;99.90;;;;;;5053504;28;19970;-65
2022/09/27 12:48:11;;;;;;;;;;;15.10;99.90;;;;;;5053900;28;19965;-64
2022/09/27 12:50:43;;;;;;;;;;;14.80;99.90;;;;;;5053690;28;19971;-65
2022/09/27 12:53:13;;;;;;;;;;;14.50;99.90;;;;;;5054251;28;19971;-65
2022/09/27 12:55:55;;;;;;;;;;;14.30;99.90;;;;;;5053918;28;19967;-65
2022/09/27 12:58:42;;;;;;;;;;;14.20;99.90;;;;;;5053931;28;19970;-66
2022/09/27 13:01:16;;;;;;;;;;;14.10;99.90;;;;;;5053563;28;19975;-65
2022/09/27 13:03:54;;;;;;;;;;;14.10;99.90;;;;;;5054015;28;20048;-65
2022/09/27 13:06:30;;;;;;;;;;;14.10;99.90;;;;;;5053398;28;19973;-65
2022/09/27 13:09:22;;;;;;;;;;;14.20;99.90;;;;;;5053372;28;20058;-64
2022/09/27 13:11:54;;;;;;;;;;;14.20;99.90;;;;;;5053624;28;19971;-65
2022/09/27 13:14:23;;;;;;;;;;;14.10;99.90;;;;;;5053636;28;19967;-65
2022/09/27 13:16:51;;;;;;;;;;;14.20;99.90;;;;;;5053340;28;19973;-65
2022/09/27 13:19:38;;;;;;;;;;;14.10;99.90;;;;;;5053592;28;19971;-65
2022/09/27 13:22:08;;;;;;;;;;;14.10;99.90;;;;;;5053459;28;19978;-65
2022/09/27 13:24:43;;;;;;;;;;;14.00;99.90;;;;;;5053431;28;19993;-65
2022/09/27 13:27:28;;;;;;;;;;;13.90;99.90;;;;;;5053525;28;20350;-65
2022/09/27 13:30:18;;;;;;;;;;;13.90;99.90;;;;;;5046392;28;19974;-66
2022/09/27 13:33:16;;;;;;;;;;;13.80;99.90;;;;;;5052562;28;20069;-65
2022/09/27 13:36:05;;;;;;;;;;;13.80;99.90;;;;;;5052660;28;19967;-65
2022/09/27 13:38:33;;;;;;;;;;;13.80;99.90;;;;;;5053554;28;19976;-65
2022/09/27 13:41:13;;;;;;;;;;;13.70;99.90;;;;;;5051917;28;19970;-65
2022/09/27 13:43:53;;;;;;;;;;;13.60;99.90;;;;;;5052672;28;20019;-65
2022/09/27 13:46:23;;;;;;;;;;;13.50;99.90;;;;;;5052444;28;19976;-65
2022/09/27 13:48:54;;;;;;;;;;;13.40;99.90;;;;;;5053070;28;20046;-65
2022/09/27 13:51:40;;;;;;;;;;;13.30;99.90;;;;;;5052842;28;19970;-65
2022/09/27 13:54:29;;;;;;;;;;;13.40;99.90;;;;;;5052345;28;19974;-65
2022/09/27 13:56:56;;;;;;;;;;;13.40;99.90;;;;;;5052467;28;19978;-64
2022/09/27 13:59:26;;;;;;;;;;;13.40;99.90;;;;;;5052876;28;20364;-64
2022/09/27 14:01:56;;;;;;;;;;;13.50;99.90;;;;;;5052535;28;20439;-65
2022/09/27 14:04:26;;;;;;;;;;;13.70;99.90;;;;;;5052128;28;20010;-64
2022/09/27 14:06:57;;;;;;;;;;;14.00;99.90;;;;;;5052501;28;19966;-65
2022/09/27 14:09:26;;;;;;;;;;;14.20;99.90;;;;;;5052587;28;20467;-65
2022/09/27 14:11:56;;;;;;;;;;;14.30;99.90;;;;;;5052324;28;19967;-65
2022/09/27 14:14:24;;;;;;;;;;;14.30;99.90;;;;;;5052607;28;19974;-64
2022/09/27 14:16:53;;;;;;;;;;;14.40;99.90;;;;;;5051669;28;20440;-65
2022/09/27 14:19:21;;;;;;;;;;;14.30;99.90;;;;;;5052575;28;19975;-65
2022/09/27 14:21:49;;;;;;;;;;;14.20;99.90;;;;;;5051997;28;19967;-64
2022/09/27 14:24:23;;;;;;;;;;;14.10;99.90;;;;;;5052564;28;19975;-65
2022/09/27 14:27:02;;;;;;;;;;;14.20;99.90;;;;;;5051485;28;19967;-65
2022/09/27 14:29:32;;;;;;;;;;;14.20;99.90;;;;;;5052355;28;20424;-64
2022/09/27 14:32:03;;;;;;;;;;;14.30;99.90;;;;;;5052058;28;19966;-65
2022/09/27 14:34:31;;;;;;;;;;;14.40;99.90;;;;;;5051681;28;19977;-65
2022/09/27 14:39:46;;;;;;;;;;;14.30;99.90;;;;;;5051945;28;19967;-64
2022/09/27 14:42:18;;;;;;;;;;;14.30;99.90;;;;;;5052083;28;19970;-64
2022/09/27 14:44:46;;;;;;;;;;;14.30;99.90;;;;;;5051503;28;20036;-65
2022/09/27 14:47:17;;;;;;;;;;;14.20;99.90;;;;;;5052058;28;19979;-65
2022/09/27 14:49:47;;;;;;;;;;;14.00;99.90;;;;;;5051527;28;20334;-65